createdAt,value
2018-02-23T00:01:26.699Z,101748.38
2018-02-23T00:03:54.293Z,101745.75
2018-02-23T00:06:22.128Z,101741.98
2018-02-23T00:08:49.752Z,101739.58
2018-02-23T00:11:17.367Z,101738.95
2018-02-23T00:13:45.149Z,101742.52
2018-02-23T00:16:12.849Z,101744.58
2018-02-23T00:18:40.484Z,101734.13
2018-02-23T00:21:08.075Z,101738.77
2018-02-23T00:23:35.835Z,101738.15
2018-02-23T00:26:03.488Z,101736.19
2018-02-23T00:28:31.305Z,101730.97
2018-02-23T00:30:58.976Z,101726.30
2018-02-23T00:33:26.631Z,101726.84
2018-02-23T00:35:54.219Z,101723.33
2018-02-23T00:38:21.812Z,101720.04
2018-02-23T00:40:49.431Z,101722.67
2018-02-23T00:43:17.256Z,101723.59
2018-02-23T00:45:45.017Z,101722.13
2018-02-23T00:48:12.703Z,101724.38
2018-02-23T00:50:40.396Z,101731.52
2018-02-23T00:53:08.156Z,101729.70
2018-02-23T00:55:35.752Z,101721.87
2018-02-23T00:58:03.336Z,101722.00
2018-02-23T01:00:31.186Z,101723.48
2018-02-23T01:02:58.849Z,101728.44
2018-02-23T01:05:26.643Z,101719.50
2018-02-23T01:07:54.340Z,101720.98
2018-02-23T01:10:22.094Z,101715.45
2018-02-23T01:12:49.701Z,101718.94
2018-02-23T01:15:17.312Z,101708.95
2018-02-23T01:17:44.940Z,101704.14
2018-02-23T01:20:12.587Z,101704.81
2018-02-23T01:22:40.471Z,101704.56
2018-02-23T01:25:08.070Z,101704.74
2018-02-23T01:27:35.822Z,101708.62
2018-02-23T01:30:03.493Z,101706.80
2018-02-23T01:32:31.080Z,101700.20
2018-02-23T01:34:58.806Z,101690.96
2018-02-23T01:37:26.405Z,101691.52
2018-02-23T01:39:54.201Z,101688.95
2018-02-23T01:42:21.872Z,101684.96
2018-02-23T01:44:49.537Z,101689.84
2018-02-23T01:47:17.215Z,101685.08
2018-02-23T01:49:44.954Z,101675.06
2018-02-23T01:52:12.779Z,101675.91
2018-02-23T01:54:40.655Z,101675.01
2018-02-23T01:57:08.329Z,101671.20
2018-02-23T01:59:35.928Z,101668.98
2018-02-23T02:02:03.678Z,101664.84
2018-02-23T02:04:31.359Z,101664.44
2018-02-23T02:06:59.096Z,101656.28
2018-02-23T02:09:26.819Z,101660.86
2018-02-23T02:11:54.574Z,101655.02
2018-02-23T02:14:22.370Z,101652.60
2018-02-23T02:16:49.962Z,101648.65
2018-02-23T02:19:19.414Z,101649.23
2018-02-23T02:21:47.127Z,101644.36
2018-02-23T02:24:14.715Z,101640.70
2018-02-23T02:26:42.385Z,101640.18
2018-02-23T02:29:09.990Z,101634.19
2018-02-23T02:31:37.683Z,101637.19
2018-02-23T02:34:05.625Z,101637.37
2018-02-23T02:36:33.607Z,101639.84
2018-02-23T02:39:01.198Z,101639.52
2018-02-23T02:41:29.054Z,101634.73
2018-02-23T02:43:56.724Z,101638.85
2018-02-23T02:46:24.395Z,101626.99
2018-02-23T02:48:52.251Z,101626.86
2018-02-23T02:51:19.836Z,101628.52
2018-02-23T02:53:47.632Z,101635.61
2018-02-23T02:56:15.293Z,101636.88
2018-02-23T02:58:42.964Z,101634.55
2018-02-23T03:01:10.658Z,101637.36
2018-02-23T03:03:38.305Z,101634.72
2018-02-23T03:06:06.107Z,101635.23
2018-02-23T03:08:33.888Z,101627.24
2018-02-23T03:11:01.719Z,101627.24
2018-02-23T03:13:29.330Z,101626.66
2018-02-23T03:15:56.926Z,101629.75
2018-02-23T03:18:24.578Z,101628.80
2018-02-23T03:20:52.269Z,101631.64
2018-02-23T03:23:19.897Z,101627.81
2018-02-23T03:25:47.606Z,101629.42
2018-02-23T03:28:15.356Z,101629.16
2018-02-23T03:30:43.058Z,101628.38
2018-02-23T03:33:10.726Z,101626.42
2018-02-23T03:35:38.519Z,101633.23
2018-02-23T03:38:06.193Z,101630.89
2018-02-23T03:40:33.866Z,101623.48
2018-02-23T03:43:01.461Z,101623.48
2018-02-23T03:45:29.105Z,101622.14
2018-02-23T03:47:56.861Z,101621.90
2018-02-23T03:50:24.568Z,101627.98
2018-02-23T03:52:52.230Z,101616.92
2018-02-23T03:55:19.834Z,101622.64
2018-02-23T03:57:47.498Z,101615.69
2018-02-23T04:00:15.246Z,101611.34
2018-02-23T04:02:42.854Z,101617.48
2018-02-23T04:05:10.627Z,101614.58
2018-02-23T04:07:38.211Z,101608.90
2018-02-23T04:10:05.810Z,101610.89
2018-02-23T04:12:33.473Z,101616.63
2018-02-23T04:15:01.061Z,101614.85
2018-02-23T04:17:28.656Z,101614.53
2018-02-23T04:19:56.318Z,101615.25
2018-02-23T04:22:23.921Z,101622.84
2018-02-23T04:24:51.721Z,101622.66
2018-02-23T04:27:19.498Z,101623.61
2018-02-23T04:29:47.092Z,101620.76
2018-02-23T04:32:14.728Z,101619.45
2018-02-23T04:34:42.521Z,101624.61
2018-02-23T04:37:10.108Z,101623.26
2018-02-23T04:39:37.749Z,101629.91
2018-02-23T04:42:05.444Z,101629.10
2018-02-23T04:44:33.055Z,101628.91
2018-02-23T04:47:00.805Z,101633.27
2018-02-23T04:49:28.571Z,101631.60
2018-02-23T04:51:56.247Z,101634.31
2018-02-23T04:54:25.050Z,101637.27
2018-02-23T04:56:52.792Z,101633.82
2018-02-23T04:59:20.380Z,101641.11
2018-02-23T05:01:48.077Z,101638.22
2018-02-23T05:04:15.742Z,101632.42
2018-02-23T05:06:43.334Z,101638.86
2018-02-23T05:09:11.005Z,101628.31
2018-02-23T05:11:38.619Z,101624.72
2018-02-23T05:14:06.245Z,101625.80
2018-02-23T05:16:34.029Z,101634.45
2018-02-23T05:19:01.799Z,101632.61
2018-02-23T05:21:29.555Z,101628.97
2018-02-23T05:23:57.172Z,101635.56
2018-02-23T05:26:25.035Z,101633.56
2018-02-23T05:28:52.816Z,101635.27
2018-02-23T05:31:20.545Z,101631.72
2018-02-23T05:33:48.192Z,101641.56
2018-02-23T05:36:15.786Z,101639.61
2018-02-23T05:38:43.574Z,101641.62
2018-02-23T05:41:11.237Z,101641.62
2018-02-23T05:43:38.859Z,101632.38
2018-02-23T05:46:06.618Z,101636.38
2018-02-23T05:48:34.317Z,101637.41
2018-02-23T05:51:01.998Z,101640.46
2018-02-23T05:53:29.745Z,101635.36
2018-02-23T05:55:57.333Z,101647.63
2018-02-23T05:58:24.903Z,101650.97
2018-02-23T06:00:52.583Z,101644.83
2018-02-23T06:03:20.184Z,101649.73
2018-02-23T06:05:47.782Z,101646.13
2018-02-23T06:08:15.412Z,101654.53
2018-02-23T06:10:43.099Z,101666.44
2018-02-23T06:13:10.872Z,101656.94
2018-02-23T06:15:44.273Z,101659.98
2018-02-23T06:18:11.897Z,101662.38
2018-02-23T06:20:39.513Z,101661.98
2018-02-23T06:23:07.200Z,101666.08
2018-02-23T06:25:34.929Z,101660.02
2018-02-23T06:28:02.542Z,101657.80
2018-02-23T06:30:30.145Z,101658.26
2018-02-23T06:32:57.796Z,101655.16
2018-02-23T06:35:25.578Z,101658.09
2018-02-23T06:37:53.260Z,101658.62
2018-02-23T06:40:20.927Z,101668.34
2018-02-23T06:42:48.713Z,101668.05
2018-02-23T06:45:16.486Z,101665.04
2018-02-23T06:47:44.074Z,101668.98
2018-02-23T06:50:11.735Z,101672.98
2018-02-23T06:52:39.398Z,101677.19
2018-02-23T06:55:07.188Z,101680.87
2018-02-23T06:57:35.070Z,101681.98
2018-02-23T07:00:02.724Z,101685.27
2018-02-23T07:02:30.411Z,101687.87
2018-02-23T07:04:58.200Z,101693.13
2018-02-23T07:07:25.958Z,101697.38
2018-02-23T07:09:53.721Z,101691.89
2018-02-23T07:12:21.360Z,101697.41
2018-02-23T07:14:49.001Z,101693.47
2018-02-23T07:17:16.779Z,101699.03
2018-02-23T07:19:44.437Z,101696.84
2018-02-23T07:22:12.025Z,101702.59
2018-02-23T07:24:39.604Z,101711.16
2018-02-23T07:27:07.335Z,101711.20
2018-02-23T07:29:35.154Z,101720.67
2018-02-23T07:32:02.820Z,101718.88
2018-02-23T07:34:30.504Z,101718.94
2018-02-23T07:36:58.286Z,101720.74
2018-02-23T07:39:25.957Z,101724.50
2018-02-23T07:41:53.731Z,101731.77
2018-02-23T07:44:21.410Z,101733.61
2018-02-23T07:46:49.000Z,101735.63
2018-02-23T07:49:16.867Z,101736.07
2018-02-23T07:51:44.540Z,101731.88
2018-02-23T07:54:12.216Z,101741.09
2018-02-23T07:56:40.099Z,101736.73
2018-02-23T07:59:07.880Z,101740.75
2018-02-23T08:01:35.537Z,101741.25
2018-02-23T08:04:03.218Z,101736.11
2018-02-23T08:06:30.904Z,101739.91
2018-02-23T08:08:58.567Z,101737.16
2018-02-23T08:11:26.328Z,101742.02
2018-02-23T08:13:54.024Z,101733.34
2018-02-23T08:16:21.695Z,101741.47
2018-02-23T08:18:49.374Z,101737.01
2018-02-23T08:21:17.046Z,101739.25
2018-02-23T08:23:44.735Z,101737.21
2018-02-23T08:26:12.387Z,101743.62
2018-02-23T08:28:39.962Z,101740.27
2018-02-23T08:31:07.787Z,101744.41
2018-02-23T08:33:35.379Z,101738.20
2018-02-23T08:36:03.004Z,101745.00
2018-02-23T08:38:30.641Z,101745.81
2018-02-23T08:40:58.346Z,101738.64
2018-02-23T08:43:26.141Z,101742.79
2018-02-23T08:45:53.905Z,101745.11
2018-02-23T08:48:21.692Z,101745.37
2018-02-23T08:50:49.358Z,101747.45
2018-02-23T08:53:16.981Z,101755.64
2018-02-23T08:55:44.677Z,101747.70
2018-02-23T08:58:12.597Z,101750.64
2018-02-23T09:00:46.210Z,101746.52
2018-02-23T09:03:14.092Z,101743.25
2018-02-23T09:05:41.761Z,101756.17
2018-02-23T09:08:09.548Z,101738.64
2018-02-23T09:10:37.210Z,101749.03
2018-02-23T09:13:04.797Z,101743.83
2018-02-23T09:15:32.471Z,101756.42
2018-02-23T09:18:00.249Z,101752.19
2018-02-23T09:20:27.829Z,101749.41
2018-02-23T09:22:55.707Z,101744.45
2018-02-23T09:25:23.366Z,101754.67
2018-02-23T09:27:51.155Z,101746.50
2018-02-23T09:30:18.833Z,101752.58
2018-02-23T09:32:46.522Z,101745.48
2018-02-23T09:35:14.096Z,101750.81
2018-02-23T09:37:41.749Z,101743.21
2018-02-23T09:40:09.538Z,101749.84
2018-02-23T09:42:37.188Z,101747.50
2018-02-23T09:45:04.820Z,101748.70
2018-02-23T09:47:32.455Z,101747.20
2018-02-23T09:50:00.182Z,101737.63
2018-02-23T09:52:28.015Z,101738.80
2018-02-23T09:54:55.766Z,101732.95
2018-02-23T09:57:23.457Z,101740.55
2018-02-23T09:59:51.076Z,101738.05
2018-02-23T10:02:18.688Z,101728.73
2018-02-23T10:04:46.254Z,101734.08
2018-02-23T10:07:14.047Z,101729.57
2018-02-23T10:09:41.730Z,101723.45
2018-02-23T10:12:09.300Z,101724.11
2018-02-23T10:14:36.979Z,101720.89
2018-02-23T10:17:04.767Z,101725.91
2018-02-23T10:19:32.340Z,101724.18
2018-02-23T10:21:59.996Z,101724.47
2018-02-23T10:24:27.678Z,101719.77
2018-02-23T10:26:55.367Z,101717.66
2018-02-23T10:29:23.030Z,101718.14
2018-02-23T10:31:50.710Z,101717.23
2018-02-23T10:34:18.399Z,101720.67
2018-02-23T10:36:46.016Z,101726.30
2018-02-23T10:39:13.611Z,101719.48
2018-02-23T10:41:41.251Z,101731.48
2018-02-23T10:44:08.886Z,101724.16
2018-02-23T10:46:36.491Z,101729.66
2018-02-23T10:49:04.300Z,101731.77
2018-02-23T10:51:31.900Z,101717.29
2018-02-23T10:53:59.680Z,101718.36
2018-02-23T10:56:27.363Z,101714.52
2018-02-23T10:58:55.035Z,101707.07
2018-02-23T11:01:22.656Z,101712.77
2018-02-23T11:03:50.299Z,101705.63
2018-02-23T11:06:17.868Z,101707.46
2018-02-23T11:08:45.530Z,101710.47
2018-02-23T11:11:13.197Z,101703.34
2018-02-23T11:13:40.986Z,101702.83
2018-02-23T11:16:08.880Z,101709.15
2018-02-23T11:18:36.644Z,101708.11
2018-02-23T11:21:04.534Z,101705.20
2018-02-23T11:23:32.192Z,101696.91
2018-02-23T11:25:59.885Z,101695.35
2018-02-23T11:28:27.609Z,101700.92
2018-02-23T11:30:55.220Z,101702.74
2018-02-23T11:33:23.015Z,101705.70
2018-02-23T11:35:50.784Z,101701.37
2018-02-23T11:38:18.458Z,101700.02
2018-02-23T11:40:46.046Z,101694.17
2018-02-23T11:43:13.679Z,101689.53
2018-02-23T11:45:41.494Z,101697.50
2018-02-23T11:48:09.155Z,101688.45
2018-02-23T11:50:36.944Z,101689.34
2018-02-23T11:53:04.721Z,101707.23
2018-02-23T11:55:32.293Z,101686.23
2018-02-23T11:58:05.372Z,101694.37
2018-02-23T12:00:32.973Z,101679.78
2018-02-23T12:03:00.644Z,101686.61
2018-02-23T12:05:28.308Z,101688.55
2018-02-23T12:07:56.102Z,101688.95
2018-02-23T12:10:23.681Z,101695.48
2018-02-23T12:12:51.456Z,101688.84
2018-02-23T12:15:19.084Z,101678.19
2018-02-23T12:17:46.652Z,101684.91
2018-02-23T12:20:14.582Z,101676.85
2018-02-23T12:22:42.168Z,101664.08
2018-02-23T12:25:09.886Z,101662.88
2018-02-23T12:27:37.609Z,101666.72
2018-02-23T12:30:05.265Z,101665.01
2018-02-23T12:32:32.831Z,101659.65
2018-02-23T12:35:00.634Z,101659.59
2018-02-23T12:37:28.229Z,101664.78
2018-02-23T12:39:55.882Z,101659.36
2018-02-23T12:42:23.661Z,101654.30
2018-02-23T12:44:51.321Z,101652.95
2018-02-23T12:47:18.966Z,101645.65
2018-02-23T12:49:46.573Z,101657.48
2018-02-23T12:52:14.258Z,101650.20
2018-02-23T12:54:41.909Z,101650.63
2018-02-23T12:57:09.482Z,101664.55
2018-02-23T12:59:37.188Z,101638.92
2018-02-23T13:02:04.951Z,101640.20
2018-02-23T13:04:32.640Z,101642.88
2018-02-23T13:07:00.462Z,101635.00
2018-02-23T13:09:28.199Z,101636.38
2018-02-23T13:11:55.918Z,101642.23
2018-02-23T13:14:29.198Z,101637.62
2018-02-23T13:16:56.847Z,101643.54
2018-02-23T13:19:24.517Z,101641.31
2018-02-23T13:21:52.156Z,101639.15
2018-02-23T13:24:20.268Z,101634.60
2018-02-23T13:26:48.171Z,101635.05
2018-02-23T13:29:16.010Z,101624.20
2018-02-23T13:31:43.712Z,101623.70
2018-02-23T13:34:11.389Z,101623.48
2018-02-23T13:36:39.074Z,101626.39
2018-02-23T13:39:06.801Z,101634.60
2018-02-23T13:41:39.936Z,101618.91
2018-02-23T13:44:07.509Z,101619.81
2018-02-23T13:46:35.203Z,101613.79
2018-02-23T13:49:02.981Z,101608.54
2018-02-23T13:51:30.740Z,101611.11
2018-02-23T13:54:03.988Z,101603.44
2018-02-23T13:56:31.673Z,101605.94
2018-02-23T13:58:59.296Z,101604.52
2018-02-23T14:01:26.865Z,101600.20
2018-02-23T14:03:54.529Z,101597.92
2018-02-23T14:06:27.668Z,101599.06
2018-02-23T14:08:55.302Z,101592.06
2018-02-23T14:11:22.915Z,101595.56
2018-02-23T14:13:50.492Z,101585.38
2018-02-23T14:16:18.251Z,101592.39
2018-02-23T14:18:46.051Z,101590.36
2018-02-23T14:21:13.666Z,101593.14
2018-02-23T14:23:41.469Z,101592.09
2018-02-23T14:26:09.278Z,101596.04
2018-02-23T14:28:37.053Z,101584.70
2018-02-23T14:31:04.795Z,101589.48
2018-02-23T14:33:32.437Z,101585.50
2018-02-23T14:36:00.042Z,101584.53
2018-02-23T14:38:27.612Z,101583.34
2018-02-23T14:40:55.248Z,101576.53
2018-02-23T14:43:22.841Z,101581.13
2018-02-23T14:45:50.475Z,101577.05
2018-02-23T14:48:30.135Z,101578.35
2018-02-23T14:51:09.891Z,101572.48
2018-02-23T14:53:37.463Z,101565.42
2018-02-23T14:56:05.125Z,101569.41
2018-02-23T14:58:32.828Z,101564.56
2018-02-23T15:01:00.418Z,101567.17
2018-02-23T15:03:27.984Z,101569.19
2018-02-23T15:05:55.696Z,101550.41
2018-02-23T15:08:23.302Z,101557.75
2018-02-23T15:10:51.363Z,101557.56
2018-02-23T15:13:19.182Z,101550.86
2018-02-23T15:15:46.751Z,101555.63
2018-02-23T15:18:14.568Z,101560.55
2018-02-23T15:20:42.381Z,101558.66
2018-02-23T15:23:10.075Z,101558.63
2018-02-23T15:25:37.756Z,101559.98
2018-02-23T15:28:05.540Z,101557.78
2018-02-23T15:30:45.299Z,101555.89
2018-02-23T15:33:12.968Z,101568.45
2018-02-23T15:35:40.647Z,101571.25
2018-02-23T15:38:08.255Z,101568.64
2018-02-23T15:40:35.994Z,101567.77
2018-02-23T15:43:03.577Z,101573.50
2018-02-23T15:45:31.244Z,101561.08
2018-02-23T15:50:59.887Z,101564.01
2018-02-23T15:53:27.646Z,101560.59
2018-02-23T15:55:55.335Z,101563.42
2018-02-23T15:58:35.876Z,101571.97
2018-02-23T16:01:03.694Z,101572.27
2018-02-23T16:03:31.355Z,101573.89
2018-02-23T16:05:59.130Z,101579.02
2018-02-23T16:08:26.744Z,101578.53
2018-02-23T16:10:54.329Z,101580.55
2018-02-23T16:13:22.180Z,101572.09
2018-02-23T16:15:49.846Z,101568.47
2018-02-23T16:18:17.481Z,101567.87
2018-02-23T16:20:45.189Z,101569.89
2018-02-23T16:23:12.771Z,101567.06
2018-02-23T16:25:40.386Z,101570.58
2018-02-23T16:28:08.120Z,101569.19
2018-02-23T16:30:35.785Z,101571.58
2018-02-23T16:33:03.402Z,101574.51
2018-02-23T16:35:31.197Z,101569.28
2018-02-23T16:37:58.928Z,101574.47
2018-02-23T16:40:26.532Z,101574.66
2018-02-23T16:42:54.280Z,101570.85
2018-02-23T16:45:21.939Z,101579.37
2018-02-23T16:47:49.626Z,101571.43
2018-02-23T16:50:17.421Z,101577.05
2018-02-23T16:52:45.191Z,101578.02
2018-02-23T16:55:12.857Z,101593.66
2018-02-23T16:57:40.644Z,101597.70
2018-02-23T17:00:08.303Z,101590.31
2018-02-23T17:02:35.985Z,101595.13
2018-02-23T17:05:03.819Z,101592.92
2018-02-23T17:07:31.467Z,101594.12
2018-02-23T17:09:59.324Z,101590.59
2018-02-23T17:12:26.967Z,101586.77
2018-02-23T17:14:54.569Z,101587.02
2018-02-23T17:17:22.149Z,101584.44
2018-02-23T17:19:49.806Z,101584.75
2018-02-23T17:22:17.598Z,101590.54
2018-02-23T17:24:46.292Z,101588.53
2018-02-23T17:27:13.967Z,101589.11
2018-02-23T17:29:41.632Z,101594.42
2018-02-23T17:32:09.321Z,101591.30
2018-02-23T17:34:36.987Z,101588.89
2018-02-23T17:37:04.633Z,101586.28
2018-02-23T17:39:32.213Z,101587.06
2018-02-23T17:42:00.016Z,101603.80
2018-02-23T17:44:27.687Z,101599.56
2018-02-23T17:46:55.266Z,101601.77
2018-02-23T17:49:22.934Z,101595.96
2018-02-23T17:51:50.681Z,101600.34
2018-02-23T17:54:18.292Z,101602.45
2018-02-23T17:56:45.903Z,101598.94
2018-02-23T17:59:13.481Z,101603.52
2018-02-23T18:01:41.216Z,101601.45
2018-02-23T18:04:08.881Z,101607.56
2018-02-23T18:06:36.585Z,101597.44
2018-02-23T18:09:04.339Z,101604.05
2018-02-23T18:11:32.022Z,101596.11
2018-02-23T18:13:59.606Z,101601.29
2018-02-23T18:16:27.267Z,101603.77
2018-02-23T18:18:55.119Z,101612.31
2018-02-23T18:21:22.830Z,101609.18
2018-02-23T18:23:50.494Z,101613.16
2018-02-23T18:26:18.282Z,101612.75
2018-02-23T18:28:45.944Z,101613.36
2018-02-23T18:31:13.637Z,101612.99
2018-02-23T18:33:41.517Z,101618.81
2018-02-23T18:36:09.100Z,101617.37
2018-02-23T18:38:36.761Z,101631.03
2018-02-23T18:41:04.607Z,101638.07
2018-02-23T18:43:32.224Z,101636.91
2018-02-23T18:45:59.876Z,101638.77
2018-02-23T18:48:27.507Z,101641.38
2018-02-23T18:50:55.240Z,101641.23
2018-02-23T18:53:22.985Z,101656.73
2018-02-23T18:55:50.682Z,101655.08
2018-02-23T18:58:18.369Z,101655.02
2018-02-23T19:00:46.259Z,101650.47
2018-02-23T19:03:13.841Z,101651.84
2018-02-23T19:05:41.537Z,101649.59
2018-02-23T19:08:09.158Z,101656.70
2018-02-23T19:10:36.951Z,101656.91
2018-02-23T19:13:04.624Z,101655.49
2018-02-23T19:15:32.403Z,101663.77
2018-02-23T19:18:00.282Z,101665.13
2018-02-23T19:20:27.860Z,101663.63
2018-02-23T19:22:55.736Z,101665.64
2018-02-23T19:25:23.474Z,101662.38
2018-02-23T19:27:51.098Z,101661.56
2018-02-23T19:30:18.799Z,101663.92
2018-02-23T19:32:46.444Z,101657.73
2018-02-23T19:35:14.221Z,101667.59
2018-02-23T19:37:42.102Z,101668.73
2018-02-23T19:40:09.764Z,101682.01
2018-02-23T19:42:37.555Z,101680.60
2018-02-23T19:45:05.319Z,101672.19
2018-02-23T19:47:32.907Z,101671.94
2018-02-23T19:50:00.534Z,101677.34
2018-02-23T19:52:28.237Z,101680.95
2018-02-23T19:54:55.822Z,101678.95
2018-02-23T19:57:23.410Z,101691.20
2018-02-23T19:59:51.166Z,101680.75
2018-02-23T20:02:18.744Z,101677.74
2018-02-23T20:04:46.326Z,101682.84
2018-02-23T20:07:13.960Z,101680.80
2018-02-23T20:09:41.551Z,101677.48
2018-02-23T20:12:09.246Z,101679.90
2018-02-23T20:14:36.923Z,101683.00
2018-02-23T20:17:04.534Z,101685.70
2018-02-23T20:19:32.273Z,101686.91
2018-02-23T20:22:00.049Z,101682.39
2018-02-23T20:24:27.792Z,101676.81
2018-02-23T20:26:55.490Z,101684.42
2018-02-23T20:29:23.166Z,101678.23
2018-02-23T20:31:50.751Z,101670.48
2018-02-23T20:34:18.401Z,101678.13
2018-02-23T20:36:46.096Z,101671.85
2018-02-23T20:39:13.681Z,101671.06
2018-02-23T20:41:41.560Z,101675.02
2018-02-23T20:44:09.220Z,101680.05
2018-02-23T20:46:36.905Z,101678.55
2018-02-23T20:49:04.481Z,101692.80
2018-02-23T20:51:32.251Z,101685.81
2018-02-23T20:54:00.039Z,101683.22
2018-02-23T20:56:27.631Z,101686.91
2018-02-23T20:58:55.262Z,101680.10
2018-02-23T21:01:22.904Z,101685.95
2018-02-23T21:03:50.532Z,101681.56
2018-02-23T21:06:18.197Z,101683.95
2018-02-23T21:08:45.841Z,101686.15
2018-02-23T21:11:13.667Z,101686.59
2018-02-23T21:13:41.252Z,101689.20
2018-02-23T21:16:08.898Z,101690.59
2018-02-23T21:18:36.690Z,101700.55
2018-02-23T21:21:04.355Z,101695.72
2018-02-23T21:23:32.077Z,101695.13
2018-02-23T21:25:59.683Z,101693.78
2018-02-23T21:28:27.491Z,101694.05
2018-02-23T21:30:55.109Z,101698.56
2018-02-23T21:33:22.740Z,101697.77
2018-02-23T21:35:50.348Z,101700.30
2018-02-23T21:38:18.084Z,101697.84
2018-02-23T21:40:45.759Z,101702.21
2018-02-23T21:43:13.392Z,101698.78
2018-02-23T21:45:41.002Z,101693.18
2018-02-23T21:48:08.683Z,101699.52
2018-02-23T21:50:36.470Z,101700.84
2018-02-23T21:53:04.139Z,101707.75
2018-02-23T21:55:31.825Z,101704.97
2018-02-23T21:57:59.477Z,101708.59
2018-02-23T22:00:27.066Z,101714.04
2018-02-23T22:02:54.949Z,101714.75
2018-02-23T22:05:22.659Z,101708.92
2018-02-23T22:07:50.289Z,101706.45
2018-02-23T22:10:17.900Z,101713.00
2018-02-23T22:12:45.539Z,101708.61
2018-02-23T22:15:13.179Z,101703.16
2018-02-23T22:17:41.007Z,101707.01
2018-02-23T22:20:08.589Z,101702.18
2018-02-23T22:22:36.341Z,101701.91
2018-02-23T22:25:04.022Z,101707.03
2018-02-23T22:27:31.708Z,101704.77
2018-02-23T22:29:59.475Z,101706.03
2018-02-23T22:32:27.233Z,101706.30
2018-02-23T22:34:54.864Z,101713.84
2018-02-23T22:37:22.461Z,101710.80
2018-02-23T22:39:50.084Z,101719.25
2018-02-23T22:42:17.856Z,101718.91
2018-02-23T22:44:45.531Z,101731.25
2018-02-23T22:47:13.119Z,101729.98
2018-02-23T22:49:40.770Z,101736.39
2018-02-23T22:52:08.368Z,101728.11
2018-02-23T22:54:35.973Z,101730.02
2018-02-23T22:57:03.637Z,101738.67
2018-02-23T22:59:31.281Z,101735.09
2018-02-23T23:01:58.963Z,101736.80
2018-02-23T23:04:26.736Z,101733.80
2018-02-23T23:06:54.408Z,101732.06
2018-02-23T23:09:21.996Z,101730.14
2018-02-23T23:11:49.867Z,101735.92
2018-02-23T23:14:17.613Z,101741.05
2018-02-23T23:16:45.255Z,101742.53
2018-02-23T23:19:12.890Z,101750.86
2018-02-23T23:21:40.494Z,101740.31
2018-02-23T23:24:08.239Z,101745.39
2018-02-23T23:26:35.861Z,101742.78
2018-02-23T23:29:03.696Z,101741.77
2018-02-23T23:31:31.368Z,101743.41
2018-02-23T23:33:58.963Z,101750.05
2018-02-23T23:36:26.588Z,101746.80
2018-02-23T23:38:54.401Z,101750.80
2018-02-23T23:41:22.069Z,101752.41
2018-02-23T23:43:49.740Z,101755.41
2018-02-23T23:46:17.327Z,101753.34
2018-02-23T23:48:44.995Z,101753.48
2018-02-23T23:51:12.777Z,101750.27
2018-02-23T23:53:40.652Z,101749.03
2018-02-23T23:56:08.224Z,101749.56
2018-02-23T23:58:35.894Z,101743.83
